createdAt,value
2022-10-18T00:02:03.552Z,52.60
2022-10-18T00:05:27.421Z,49.58
2022-10-18T00:08:51.460Z,48.94
2022-10-18T00:12:15.479Z,48.74
2022-10-18T00:15:38.408Z,50.60
2022-10-18T00:19:02.426Z,50.78
2022-10-18T00:22:26.512Z,48.15
2022-10-18T00:25:50.503Z,51.23
2022-10-18T00:29:17.454Z,53.59
2022-10-18T00:32:41.482Z,57.17
2022-10-18T00:36:04.421Z,52.12
2022-10-18T00:39:31.439Z,54.81
2022-10-18T00:42:54.468Z,53.60
2022-10-18T00:46:18.487Z,53.87
2022-10-18T00:49:48.421Z,55.17
2022-10-18T00:53:14.485Z,52.51
2022-10-18T00:56:38.463Z,51.16
2022-10-18T01:00:02.474Z,49.73
2022-10-18T01:03:26.469Z,51.58
2022-10-18T01:10:32.461Z,50.18
2022-10-18T01:14:38.462Z,48.04
2022-10-18T01:18:20.496Z,49.89
2022-10-18T01:21:50.514Z,49.30
2022-10-18T01:25:52.458Z,48.54
2022-10-18T01:29:28.484Z,49.02
2022-10-18T01:33:02.524Z,52.51
2022-10-18T01:36:44.437Z,51.79
2022-10-18T01:40:11.488Z,51.12
2022-10-18T01:43:36.457Z,55.64
2022-10-18T01:46:59.533Z,54.28
2022-10-18T01:50:23.484Z,51.91
2022-10-18T01:53:49.479Z,51.41
2022-10-18T01:57:52.522Z,51.62
2022-10-18T02:01:46.511Z,56.87
2022-10-18T02:05:19.505Z,59.67
2022-10-18T02:08:46.461Z,60.64
2022-10-18T02:12:10.507Z,61.78
2022-10-18T02:15:37.567Z,66.06
2022-10-18T02:19:13.581Z,64.93
2022-10-18T02:22:39.546Z,68.82
2022-10-18T02:26:04.462Z,71.31
2022-10-18T02:29:28.534Z,73.80
2022-10-18T02:32:58.515Z,70.66
2022-10-18T02:36:52.528Z,72.34
2022-10-18T02:40:15.522Z,73.05
2022-10-18T02:43:39.529Z,78.37
2022-10-18T02:47:02.643Z,79.29
2022-10-18T02:50:27.469Z,75.00
2022-10-18T02:53:51.574Z,73.89
2022-10-18T02:57:16.529Z,75.18
2022-10-18T03:00:40.555Z,71.92
2022-10-18T03:04:04.493Z,73.52
2022-10-18T03:07:28.647Z,76.72
2022-10-18T03:10:53.570Z,77.78
2022-10-18T03:14:17.478Z,81.61
2022-10-18T03:17:41.626Z,78.32
2022-10-18T03:21:05.532Z,77.20
2022-10-18T03:24:29.572Z,87.63
2022-10-18T03:27:53.526Z,93.48
2022-10-18T03:31:19.550Z,97.41
2022-10-18T03:34:47.466Z,97.67
2022-10-18T03:38:12.631Z,90.26
2022-10-18T03:41:36.486Z,94.63
2022-10-18T03:45:00.537Z,87.29
2022-10-18T03:48:24.571Z,85.01
2022-10-18T03:51:47.536Z,85.72
2022-10-18T03:55:12.560Z,85.14
2022-10-18T03:58:36.551Z,85.16
2022-10-18T04:01:55.625Z,82.03
2022-10-18T04:05:19.584Z,81.24
2022-10-18T04:08:44.563Z,89.20
2022-10-18T04:12:07.585Z,87.43
2022-10-18T04:15:25.552Z,92.23
2022-10-18T04:18:50.541Z,91.79
2022-10-18T04:22:14.522Z,95.01
2022-10-18T04:25:38.573Z,92.76
2022-10-18T04:29:02.636Z,89.48
2022-10-18T04:32:26.549Z,89.76
2022-10-18T04:35:50.627Z,92.86
2022-10-18T04:39:14.631Z,98.54
2022-10-18T04:42:38.543Z,100.00
2022-10-18T04:46:02.559Z,99.99
2022-10-18T04:49:26.577Z,100.00
2022-10-18T04:56:12.260Z,96.35
2022-10-18T04:59:29.611Z,100.00
2022-10-18T05:02:52.653Z,95.44
2022-10-18T05:06:17.589Z,90.57
2022-10-18T05:09:41.572Z,87.70
2022-10-18T05:13:05.599Z,88.49
2022-10-18T05:16:29.577Z,87.44
2022-10-18T05:19:52.593Z,87.82
2022-10-18T05:23:18.562Z,88.94
2022-10-18T05:26:42.625Z,87.43
2022-10-18T05:30:06.558Z,88.97
2022-10-18T05:33:23.625Z,89.60
2022-10-18T05:36:47.590Z,90.56
2022-10-18T05:40:11.732Z,90.86
2022-10-18T05:43:35.589Z,90.03
2022-10-18T05:46:59.620Z,91.67
2022-10-18T05:50:23.591Z,93.01
2022-10-18T05:53:47.630Z,94.86
2022-10-18T05:57:04.621Z,95.36
2022-10-18T06:00:28.617Z,100.00
2022-10-18T06:03:52.742Z,100.00
2022-10-18T06:07:15.623Z,100.00
2022-10-18T06:10:39.623Z,100.00
2022-10-18T06:14:09.601Z,100.00
2022-10-18T06:17:34.132Z,100.00
2022-10-18T06:20:58.588Z,100.00
2022-10-18T06:24:22.626Z,100.00
2022-10-18T06:27:42.645Z,100.00
2022-10-18T06:31:06.601Z,100.00
2022-10-18T06:34:29.630Z,100.00
2022-10-18T06:37:54.601Z,100.00
2022-10-18T06:41:19.653Z,100.00
2022-10-18T06:44:44.597Z,100.00
2022-10-18T06:48:08.696Z,100.00
2022-10-18T06:51:32.635Z,100.00
2022-10-18T06:54:56.635Z,100.00
2022-10-18T06:58:14.182Z,100.00
2022-10-18T07:01:31.685Z,100.00
2022-10-18T07:04:56.152Z,100.00
2022-10-18T07:08:20.654Z,100.00
2022-10-18T07:11:44.661Z,100.00
2022-10-18T07:15:09.548Z,100.00
2022-10-18T07:18:33.652Z,100.00
2022-10-18T07:21:57.666Z,100.00
2022-10-18T07:25:21.641Z,100.00
2022-10-18T07:28:46.720Z,100.00
2022-10-18T07:32:10.639Z,100.00
2022-10-18T07:35:33.690Z,100.00
2022-10-18T07:38:57.636Z,100.00
2022-10-18T07:42:20.651Z,100.00
2022-10-18T07:45:44.633Z,100.00
2022-10-18T07:49:07.662Z,100.00
2022-10-18T07:52:31.665Z,100.00
2022-10-18T07:55:55.718Z,100.00
2022-10-18T07:59:13.758Z,100.00
2022-10-18T08:02:32.735Z,100.00
2022-10-18T08:05:56.620Z,100.00
2022-10-18T08:09:20.664Z,100.00
2022-10-18T08:12:44.683Z,100.00
2022-10-18T08:16:40.679Z,100.00
2022-10-18T08:20:12.234Z,100.00
2022-10-18T08:23:48.631Z,100.00
2022-10-18T08:27:12.694Z,100.00
2022-10-18T08:30:35.632Z,100.00
2022-10-18T08:33:59.683Z,100.00
2022-10-18T08:37:23.694Z,100.00
2022-10-18T08:40:48.662Z,100.00
2022-10-18T08:44:20.779Z,100.00
2022-10-18T08:47:57.657Z,100.00
2022-10-18T08:51:26.696Z,100.00
2022-10-18T08:55:02.638Z,100.00
2022-10-18T08:58:46.676Z,100.00
2022-10-18T09:02:36.714Z,100.00
2022-10-18T09:06:25.670Z,100.00
2022-10-18T09:10:03.709Z,100.00
2022-10-18T09:13:40.706Z,100.00
2022-10-18T09:17:16.025Z,100.00
2022-10-18T09:21:05.723Z,100.00
2022-10-18T09:24:29.649Z,100.00
2022-10-18T09:28:14.672Z,100.00
2022-10-18T09:32:14.690Z,100.00
2022-10-18T09:35:48.676Z,100.00
2022-10-18T09:39:16.635Z,100.00
2022-10-18T09:42:49.691Z,100.00
2022-10-18T09:46:13.629Z,100.00
2022-10-18T09:50:08.675Z,100.00
2022-10-18T09:53:52.656Z,100.00
2022-10-18T09:57:30.929Z,100.00
2022-10-18T10:01:02.692Z,100.00
2022-10-18T10:04:26.729Z,100.00
2022-10-18T10:07:55.654Z,100.00
2022-10-18T10:11:19.688Z,100.00
2022-10-18T10:14:44.657Z,100.00
2022-10-18T10:18:16.733Z,100.00
2022-10-18T10:21:39.706Z,100.00
2022-10-18T10:25:08.703Z,100.00
2022-10-18T10:28:37.762Z,100.00
2022-10-18T10:32:01.723Z,100.00
2022-10-18T10:35:53.228Z,100.00
2022-10-18T10:39:27.701Z,100.00
2022-10-18T10:43:18.399Z,100.00
2022-10-18T10:46:51.748Z,100.00
2022-10-18T10:50:25.704Z,100.00
2022-10-18T10:54:04.770Z,100.00
2022-10-18T10:57:28.701Z,100.00
2022-10-18T11:00:54.714Z,100.00
2022-10-18T11:04:39.705Z,100.00
2022-10-18T11:08:04.832Z,100.00
2022-10-18T11:11:41.757Z,100.00
2022-10-18T11:15:26.759Z,100.00
2022-10-18T11:18:52.722Z,100.00
2022-10-18T11:22:20.748Z,100.00
2022-10-18T11:26:18.731Z,100.00
2022-10-18T11:30:04.747Z,100.00
2022-10-18T11:34:07.794Z,100.00
2022-10-18T11:37:51.768Z,100.00
2022-10-18T11:41:47.766Z,100.00
2022-10-18T11:45:14.762Z,100.00
2022-10-18T11:49:09.687Z,100.00
2022-10-18T11:52:43.733Z,100.00
2022-10-18T11:56:32.720Z,100.00
2022-10-18T12:00:20.752Z,100.00
2022-10-18T12:03:58.751Z,100.00
2022-10-18T12:07:27.774Z,100.00
2022-10-18T12:11:07.963Z,100.00
2022-10-18T12:14:51.692Z,100.00
2022-10-18T12:18:20.789Z,100.00
2022-10-18T12:21:48.730Z,100.00
2022-10-18T12:25:11.751Z,100.00
2022-10-18T12:28:53.735Z,100.00
2022-10-18T12:32:36.781Z,100.00
2022-10-18T12:36:22.735Z,100.00
2022-10-18T12:40:09.393Z,100.00
2022-10-18T12:43:45.762Z,100.00
2022-10-18T12:47:11.773Z,100.00
2022-10-18T12:50:51.719Z,100.00
2022-10-18T12:54:18.766Z,100.00
2022-10-18T12:58:08.752Z,100.00
2022-10-18T13:01:25.831Z,100.00
2022-10-18T13:04:49.776Z,100.00
2022-10-18T13:08:42.742Z,100.00
2022-10-18T13:12:11.758Z,100.00
2022-10-18T13:15:46.761Z,100.00
2022-10-18T13:19:13.719Z,100.00
2022-10-18T13:22:57.805Z,100.00
2022-10-18T13:26:33.788Z,100.00
2022-10-18T13:30:25.798Z,100.00
2022-10-18T13:33:50.746Z,100.00
2022-10-18T13:37:39.732Z,100.00
2022-10-18T13:41:18.833Z,100.00
2022-10-18T13:44:52.722Z,100.00
2022-10-18T13:48:43.825Z,100.00
2022-10-18T13:52:34.128Z,100.00
2022-10-18T13:56:20.768Z,100.00
2022-10-18T13:59:56.781Z,100.00
2022-10-18T14:03:58.696Z,100.00
2022-10-18T14:07:22.769Z,100.00
2022-10-18T14:11:10.763Z,100.00
2022-10-18T14:14:52.797Z,100.00
2022-10-18T14:18:42.766Z,100.00
2022-10-18T14:22:27.740Z,100.00
2022-10-18T14:25:52.816Z,100.00
2022-10-18T14:29:21.840Z,100.00
2022-10-18T14:32:47.734Z,100.00
2022-10-18T14:36:46.792Z,100.00
2022-10-18T14:40:10.800Z,100.00
2022-10-18T14:43:34.792Z,100.00
2022-10-18T14:47:07.868Z,100.00
2022-10-18T14:50:40.759Z,100.00
2022-10-18T14:54:04.915Z,100.00
2022-10-18T14:57:38.754Z,100.00
2022-10-18T15:01:02.891Z,100.00
2022-10-18T15:04:28.634Z,100.00
2022-10-18T15:07:51.882Z,100.00
2022-10-18T15:11:15.784Z,100.00
2022-10-18T15:14:41.828Z,100.00
2022-10-18T15:18:05.838Z,100.00
2022-10-18T15:21:39.815Z,100.00
2022-10-18T15:25:38.846Z,100.00
2022-10-18T15:29:07.066Z,100.00
2022-10-18T15:32:39.959Z,100.00
2022-10-18T15:36:03.767Z,100.00
2022-10-18T15:39:34.812Z,100.00
2022-10-18T15:42:58.779Z,100.00
2022-10-18T15:46:41.867Z,100.00
2022-10-18T15:50:07.771Z,100.00
2022-10-18T15:53:37.856Z,100.00
2022-10-18T15:57:01.819Z,100.00
2022-10-18T16:00:33.814Z,100.00
2022-10-18T16:03:57.808Z,100.00
2022-10-18T16:07:20.833Z,100.00
2022-10-18T16:10:45.841Z,100.00
2022-10-18T16:14:02.422Z,100.00
2022-10-18T16:17:24.843Z,100.00
2022-10-18T16:20:48.837Z,100.00
2022-10-18T16:24:12.853Z,100.00
2022-10-18T16:27:36.839Z,100.00
2022-10-18T16:31:09.946Z,100.00
2022-10-18T16:34:34.822Z,100.00
2022-10-18T16:37:58.872Z,100.00
2022-10-18T16:41:23.803Z,100.00
2022-10-18T16:44:47.858Z,100.00
2022-10-18T16:48:13.831Z,100.00
2022-10-18T16:51:31.887Z,100.00
2022-10-18T16:54:55.844Z,100.00
2022-10-18T16:58:19.933Z,100.00
2022-10-18T17:01:43.901Z,100.00
2022-10-18T17:05:08.861Z,100.00
2022-10-18T17:08:40.881Z,100.00
2022-10-18T17:12:05.825Z,100.00
2022-10-18T17:15:32.815Z,100.00
2022-10-18T17:18:58.820Z,100.00
2022-10-18T17:22:22.877Z,100.00
2022-10-18T17:25:59.113Z,100.00
2022-10-18T17:29:29.826Z,100.00
2022-10-18T17:32:55.364Z,100.00
2022-10-18T17:36:18.867Z,100.00
2022-10-18T17:39:42.809Z,100.00
2022-10-18T17:43:06.867Z,100.00
2022-10-18T17:46:31.823Z,100.00
2022-10-18T17:49:55.857Z,100.00
2022-10-18T17:53:20.853Z,100.00
2022-10-18T17:56:44.896Z,100.00
2022-10-18T18:00:10.863Z,100.00
2022-10-18T18:03:33.923Z,100.00
2022-10-18T18:07:00.818Z,100.00
2022-10-18T18:10:23.923Z,100.00
2022-10-18T18:13:47.871Z,100.00
2022-10-18T18:17:10.906Z,100.00
2022-10-18T18:20:34.906Z,100.00
2022-10-18T18:23:57.844Z,100.00
2022-10-18T18:27:21.855Z,100.00
2022-10-18T18:30:44.876Z,100.00
2022-10-18T18:34:10.856Z,100.00
2022-10-18T18:37:33.901Z,100.00
2022-10-18T18:40:56.849Z,100.00
2022-10-18T18:44:20.879Z,100.00
2022-10-18T18:47:44.874Z,100.00
2022-10-18T18:51:08.835Z,100.00
2022-10-18T18:54:32.919Z,100.00
2022-10-18T18:57:56.890Z,100.00
2022-10-18T19:01:28.000Z,100.00
2022-10-18T19:04:51.883Z,100.00
2022-10-18T19:08:16.922Z,100.00
2022-10-18T19:11:40.890Z,100.00
2022-10-18T19:15:04.887Z,100.00
2022-10-18T19:18:23.911Z,100.00
2022-10-18T19:21:43.926Z,100.00
2022-10-18T19:25:07.895Z,100.00
2022-10-18T19:28:31.945Z,100.00
2022-10-18T19:31:55.884Z,100.00
2022-10-18T19:35:18.901Z,97.23
2022-10-18T19:38:42.850Z,100.00
2022-10-18T19:42:10.912Z,95.87
2022-10-18T19:45:34.887Z,94.79
2022-10-18T19:48:57.914Z,91.33
2022-10-18T19:52:21.854Z,94.13
2022-10-18T19:55:48.956Z,89.55
2022-10-18T19:59:12.890Z,88.42
2022-10-18T20:02:36.947Z,86.88
2022-10-18T20:06:00.911Z,89.05
2022-10-18T20:09:28.877Z,82.80
2022-10-18T20:12:52.918Z,79.66
2022-10-18T20:16:23.062Z,81.02
2022-10-18T20:19:49.969Z,75.76
2022-10-18T20:23:13.921Z,70.55
2022-10-18T20:26:38.993Z,63.42
2022-10-18T20:30:03.726Z,59.00
2022-10-18T20:33:29.910Z,60.76
2022-10-18T20:36:53.922Z,57.12
2022-10-18T20:40:17.915Z,55.39
2022-10-18T20:43:41.956Z,59.11
2022-10-18T20:47:05.906Z,67.25
2022-10-18T20:50:30.902Z,65.93
2022-10-18T20:53:55.003Z,69.44
2022-10-18T20:57:19.955Z,69.42
2022-10-18T21:00:43.935Z,62.30
2022-10-18T21:04:09.937Z,60.39
2022-10-18T21:07:34.072Z,63.23
2022-10-18T21:10:58.928Z,64.94
2022-10-18T21:14:26.889Z,66.87
2022-10-18T21:17:50.945Z,65.66
2022-10-18T21:21:31.968Z,59.85
2022-10-18T21:24:56.910Z,55.20
2022-10-18T21:28:21.016Z,54.61
2022-10-18T21:31:46.968Z,50.99
2022-10-18T21:35:10.943Z,48.73
2022-10-18T21:38:33.968Z,51.90
2022-10-18T21:41:57.930Z,49.01
2022-10-18T21:45:21.918Z,45.97
2022-10-18T21:48:45.966Z,49.14
2022-10-18T21:52:12.989Z,48.93
2022-10-18T21:55:36.962Z,48.06
2022-10-18T21:58:59.995Z,48.07
2022-10-18T22:02:23.917Z,46.78
2022-10-18T22:05:46.994Z,46.09
2022-10-18T22:09:13.898Z,48.14
2022-10-18T22:12:37.996Z,48.84
2022-10-18T22:16:02.979Z,51.19
2022-10-18T22:19:26.962Z,49.56
2022-10-18T22:22:44.567Z,47.80
2022-10-18T22:26:01.948Z,51.12
2022-10-18T22:29:30.925Z,50.34
2022-10-18T22:32:56.006Z,55.07
2022-10-18T22:36:19.992Z,55.94
2022-10-18T22:39:44.993Z,54.18
2022-10-18T22:43:07.983Z,53.54
2022-10-18T22:46:32.004Z,52.56
2022-10-18T22:49:57.011Z,49.16
2022-10-18T22:53:20.977Z,51.18
2022-10-18T22:56:45.020Z,53.98
2022-10-18T23:00:08.978Z,57.25
2022-10-18T23:03:32.943Z,60.00
2022-10-18T23:06:56.011Z,62.47
2022-10-18T23:10:18.986Z,61.19
2022-10-18T23:13:43.004Z,59.38
2022-10-18T23:17:06.012Z,53.66
2022-10-18T23:20:30.002Z,53.86
2022-10-18T23:23:49.576Z,57.12
2022-10-18T23:27:07.026Z,57.76
2022-10-18T23:30:29.950Z,55.35
2022-10-18T23:33:54.971Z,57.97
2022-10-18T23:37:20.004Z,54.11
2022-10-18T23:40:44.046Z,56.88
2022-10-18T23:44:07.998Z,57.79
2022-10-18T23:47:33.250Z,59.46
2022-10-18T23:50:58.034Z,52.87
2022-10-18T23:54:21.965Z,47.24
2022-10-18T23:57:46.075Z,50.12
